sensor_id;sensor_type;location;lat;lon;timestamp;pressure;altitude;pressure_sealevel;temperature;humidity
52535;BME280;38443;53.164;5.802;2023-02-12T00:00:39;103969.63;;;1.86;100.00
52535;BME280;38443;53.164;5.802;2023-02-12T00:03:05;103966.66;;;1.80;100.00
52535;BME280;38443;53.164;5.802;2023-02-12T00:05:30;103966.19;;;1.72;100.00
52535;BME280;38443;53.164;5.802;2023-02-12T00:07:56;103976.59;;;1.69;100.00
52535;BME280;38443;53.164;5.802;2023-02-12T00:10:21;103971.88;;;1.64;100.00
52535;BME280;38443;53.164;5.802;2023-02-12T00:12:47;103970.97;;;1.63;100.00
52535;BME280;38443;53.164;5.802;2023-02-12T00:15:12;103969.31;;;1.65;100.00
52535;BME280;38443;53.164;5.802;2023-02-12T00:17:38;103959.84;;;1.69;100.00
52535;BME280;38443;53.164;5.802;2023-02-12T00:20:03;103962.66;;;1.72;100.00
52535;BME280;38443;53.164;5.802;2023-02-12T00:22:29;103950.44;;;1.74;100.00
52535;BME280;38443;53.164;5.802;2023-02-12T00:24:54;103958.28;;;1.72;100.00
52535;BME280;38443;53.164;5.802;2023-02-12T00:27:19;103959.13;;;1.71;100.00
52535;BME280;38443;53.164;5.802;2023-02-12T00:29:45;103957.47;;;1.73;100.00
52535;BME280;38443;53.164;5.802;2023-02-12T00:32:10;103962.09;;;1.77;100.00
52535;BME280;38443;53.164;5.802;2023-02-12T00:34:35;103954.28;;;1.79;100.00
52535;BME280;38443;53.164;5.802;2023-02-12T00:37:01;103957.81;;;1.79;100.00
52535;BME280;38443;53.164;5.802;2023-02-12T00:39:26;103961.47;;;1.82;100.00
52535;BME280;38443;53.164;5.802;2023-02-12T00:41:52;103957.16;;;1.84;100.00
52535;BME280;38443;53.164;5.802;2023-02-12T00:44:17;103963.44;;;1.86;100.00
52535;BME280;38443;53.164;5.802;2023-02-12T00:46:43;103965.34;;;1.88;100.00
52535;BME280;38443;53.164;5.802;2023-02-12T00:49:08;103960.16;;;1.90;100.00
52535;BME280;38443;53.164;5.802;2023-02-12T00:51:33;103963.00;;;1.93;100.00
52535;BME280;38443;53.164;5.802;2023-02-12T00:53:58;103954.50;;;1.98;100.00
52535;BME280;38443;53.164;5.802;2023-02-12T00:56:24;103958.94;;;1.99;100.00
52535;BME280;38443;53.164;5.802;2023-02-12T00:58:49;103952.94;;;2.02;100.00
52535;BME280;38443;53.164;5.802;2023-02-12T01:01:15;103957.50;;;2.05;100.00
52535;BME280;38443;53.164;5.802;2023-02-12T01:03:40;103962.78;;;2.05;100.00
52535;BME280;38443;53.164;5.802;2023-02-12T01:06:06;103961.84;;;2.04;100.00
52535;BME280;38443;53.164;5.802;2023-02-12T01:08:31;103974.34;;;2.07;100.00
52535;BME280;38443;53.164;5.802;2023-02-12T01:10:59;103968.13;;;2.06;100.00
52535;BME280;38443;53.164;5.802;2023-02-12T01:13:25;103972.59;;;2.07;100.00
52535;BME280;38443;53.164;5.802;2023-02-12T01:16:14;103970.22;;;2.12;100.00
52535;BME280;38443;53.164;5.802;2023-02-12T01:18:40;103969.41;;;2.13;100.00
52535;BME280;38443;53.164;5.802;2023-02-12T01:21:09;103970.31;;;2.13;100.00
52535;BME280;38443;53.164;5.802;2023-02-12T01:23:35;103971.94;;;2.11;100.00
52535;BME280;38443;53.164;5.802;2023-02-12T01:26:00;103975.41;;;2.10;100.00
52535;BME280;38443;53.164;5.802;2023-02-12T01:28:25;103976.34;;;2.11;100.00
52535;BME280;38443;53.164;5.802;2023-02-12T01:30:50;103977.97;;;2.09;100.00
52535;BME280;38443;53.164;5.802;2023-02-12T01:33:16;103963.78;;;2.07;100.00
52535;BME280;38443;53.164;5.802;2023-02-12T01:35:41;103970.72;;;2.05;100.00
52535;BME280;38443;53.164;5.802;2023-02-12T01:38:06;103968.97;;;2.05;100.00
52535;BME280;38443;53.164;5.802;2023-02-12T01:40:31;103968.78;;;2.02;100.00
52535;BME280;38443;53.164;5.802;2023-02-12T01:43:00;103972.34;;;2.03;100.00
52535;BME280;38443;53.164;5.802;2023-02-12T01:45:45;103979.19;;;1.99;100.00
52535;BME280;38443;53.164;5.802;2023-02-12T01:48:13;103972.81;;;1.95;100.00
52535;BME280;38443;53.164;5.802;2023-02-12T01:50:41;103978.91;;;1.94;100.00
52535;BME280;38443;53.164;5.802;2023-02-12T01:53:07;103975.53;;;1.97;100.00
52535;BME280;38443;53.164;5.802;2023-02-12T01:55:32;103980.00;;;1.98;100.00
52535;BME280;38443;53.164;5.802;2023-02-12T01:57:58;103985.38;;;1.99;100.00
52535;BME280;38443;53.164;5.802;2023-02-12T02:00:23;103984.56;;;2.01;100.00
52535;BME280;38443;53.164;5.802;2023-02-12T02:02:54;103984.63;;;2.02;100.00
52535;BME280;38443;53.164;5.802;2023-02-12T02:05:27;103977.63;;;2.03;100.00
52535;BME280;38443;53.164;5.802;2023-02-12T02:07:55;103981.19;;;2.03;100.00
52535;BME280;38443;53.164;5.802;2023-02-12T02:10:20;103974.00;;;2.01;100.00
52535;BME280;38443;53.164;5.802;2023-02-12T02:12:45;103977.44;;;1.99;100.00
52535;BME280;38443;53.164;5.802;2023-02-12T02:15:30;103971.25;;;1.99;100.00
52535;BME280;38443;53.164;5.802;2023-02-12T02:21:12;103971.16;;;1.97;100.00
52535;BME280;38443;53.164;5.802;2023-02-12T02:34:41;103962.06;;;1.92;100.00
52535;BME280;38443;53.164;5.802;2023-02-12T02:37:17;103952.44;;;1.93;100.00
52535;BME280;38443;53.164;5.802;2023-02-12T02:39:53;103962.16;;;1.94;100.00
52535;BME280;38443;53.164;5.802;2023-02-12T02:42:38;103955.97;;;1.93;100.00
52535;BME280;38443;53.164;5.802;2023-02-12T02:48:05;103962.34;;;1.97;100.00
52535;BME280;38443;53.164;5.802;2023-02-12T02:50:34;103958.84;;;1.98;100.00
52535;BME280;38443;53.164;5.802;2023-02-12T02:53:10;103955.22;;;1.96;100.00
52535;BME280;38443;53.164;5.802;2023-02-12T02:55:42;103959.34;;;1.91;100.00
52535;BME280;38443;53.164;5.802;2023-02-12T02:58:15;103961.00;;;1.89;100.00
52535;BME280;38443;53.164;5.802;2023-02-12T03:03:28;103959.00;;;1.85;100.00
52535;BME280;38443;53.164;5.802;2023-02-12T03:08:56;103957.00;;;1.81;100.00
52535;BME280;38443;53.164;5.802;2023-02-12T03:11:27;103960.47;;;1.79;100.00
52535;BME280;38443;53.164;5.802;2023-02-12T03:14:09;103962.84;;;1.75;100.00
52535;BME280;38443;53.164;5.802;2023-02-12T03:16:42;103960.31;;;1.76;100.00
52535;BME280;38443;53.164;5.802;2023-02-12T03:19:19;103960.22;;;1.75;100.00
52535;BME280;38443;53.164;5.802;2023-02-12T03:21:54;103953.00;;;1.72;100.00
52535;BME280;38443;53.164;5.802;2023-02-12T03:24:28;103960.91;;;1.72;100.00
52535;BME280;38443;53.164;5.802;2023-02-12T03:27:30;103952.94;;;1.71;100.00
52535;BME280;38443;53.164;5.802;2023-02-12T03:29:57;103959.91;;;1.70;100.00
52535;BME280;38443;53.164;5.802;2023-02-12T03:32:25;103958.03;;;1.68;100.00
52535;BME280;38443;53.164;5.802;2023-02-12T03:40:28;103952.94;;;1.71;100.00
52535;BME280;38443;53.164;5.802;2023-02-12T03:45:54;103953.63;;;1.68;100.00
52535;BME280;38443;53.164;5.802;2023-02-12T03:48:45;103951.75;;;1.66;100.00
52535;BME280;38443;53.164;5.802;2023-02-12T03:51:31;103945.47;;;1.64;100.00
52535;BME280;38443;53.164;5.802;2023-02-12T03:54:00;103950.75;;;1.64;100.00
52535;BME280;38443;53.164;5.802;2023-02-12T03:56:49;103945.13;;;1.57;100.00
52535;BME280;38443;53.164;5.802;2023-02-12T03:59:21;103948.66;;;1.58;100.00
52535;BME280;38443;53.164;5.802;2023-02-12T04:01:47;103954.13;;;1.61;100.00
52535;BME280;38443;53.164;5.802;2023-02-12T04:04:14;103942.72;;;1.62;100.00
52535;BME280;38443;53.164;5.802;2023-02-12T04:06:40;103955.13;;;1.63;100.00
52535;BME280;38443;53.164;5.802;2023-02-12T04:09:06;103951.28;;;1.58;100.00
52535;BME280;38443;53.164;5.802;2023-02-12T04:14:21;103961.06;;;1.59;100.00
52535;BME280;38443;53.164;5.802;2023-02-12T04:16:57;103963.34;;;1.53;100.00
52535;BME280;38443;53.164;5.802;2023-02-12T04:22:42;103965.53;;;1.45;100.00
52535;BME280;38443;53.164;5.802;2023-02-12T04:25:20;103963.69;;;1.44;100.00
52535;BME280;38443;53.164;5.802;2023-02-12T04:31:02;103965.81;;;1.35;100.00
52535;BME280;38443;53.164;5.802;2023-02-12T04:33:40;103971.41;;;1.26;100.00
52535;BME280;38443;53.164;5.802;2023-02-12T04:36:20;103961.59;;;1.24;100.00
52535;BME280;38443;53.164;5.802;2023-02-12T04:38:53;103963.88;;;1.17;100.00
52535;BME280;38443;53.164;5.802;2023-02-12T04:41:21;103968.16;;;1.15;100.00
52535;BME280;38443;53.164;5.802;2023-02-12T04:43:46;103972.34;;;1.12;100.00
52535;BME280;38443;53.164;5.802;2023-02-12T04:46:12;103967.06;;;1.12;100.00
52535;BME280;38443;53.164;5.802;2023-02-12T04:48:41;103972.34;;;1.12;100.00
52535;BME280;38443;53.164;5.802;2023-02-12T04:51:11;103983.19;;;1.16;100.00
52535;BME280;38443;53.164;5.802;2023-02-12T04:53:36;103980.25;;;1.12;100.00
52535;BME280;38443;53.164;5.802;2023-02-12T04:56:02;103984.63;;;1.11;100.00
52535;BME280;38443;53.164;5.802;2023-02-12T04:58:27;103988.63;;;1.05;100.00
52535;BME280;38443;53.164;5.802;2023-02-12T05:00:53;103981.50;;;1.04;100.00
52535;BME280;38443;53.164;5.802;2023-02-12T05:03:18;103985.63;;;0.98;100.00
52535;BME280;38443;53.164;5.802;2023-02-12T05:05:43;103980.34;;;0.98;100.00
52535;BME280;38443;53.164;5.802;2023-02-12T05:08:09;103988.69;;;0.91;100.00
52535;BME280;38443;53.164;5.802;2023-02-12T05:10:34;103976.50;;;0.93;100.00
52535;BME280;38443;53.164;5.802;2023-02-12T05:12:59;103976.03;;;0.86;100.00
52535;BME280;38443;53.164;5.802;2023-02-12T05:15:25;103977.97;;;0.88;100.00
52535;BME280;38443;53.164;5.802;2023-02-12T05:17:50;103974.75;;;0.79;100.00
52535;BME280;38443;53.164;5.802;2023-02-12T05:20:15;103979.38;;;0.83;100.00
52535;BME280;38443;53.164;5.802;2023-02-12T05:22:41;103982.75;;;0.81;100.00
52535;BME280;38443;53.164;5.802;2023-02-12T05:25:06;103981.28;;;0.86;100.00
52535;BME280;38443;53.164;5.802;2023-02-12T05:27:31;103980.50;;;0.87;100.00
52535;BME280;38443;53.164;5.802;2023-02-12T05:29:57;103979.97;;;0.92;100.00
52535;BME280;38443;53.164;5.802;2023-02-12T05:32:22;103988.78;;;0.93;100.00
52535;BME280;38443;53.164;5.802;2023-02-12T05:34:48;103983.88;;;0.99;100.00
52535;BME280;38443;53.164;5.802;2023-02-12T05:37:13;103977.97;;;1.03;100.00
52535;BME280;38443;53.164;5.802;2023-02-12T05:39:39;103979.34;;;1.11;100.00
52535;BME280;38443;53.164;5.802;2023-02-12T05:42:04;103988.53;;;1.18;100.00
52535;BME280;38443;53.164;5.802;2023-02-12T05:44:29;103989.72;;;1.23;100.00
52535;BME280;38443;53.164;5.802;2023-02-12T05:46:54;103994.53;;;1.30;100.00
52535;BME280;38443;53.164;5.802;2023-02-12T05:49:20;103993.09;;;1.35;100.00
52535;BME280;38443;53.164;5.802;2023-02-12T05:51:45;103989.19;;;1.44;100.00
52535;BME280;38443;53.164;5.802;2023-02-12T05:54:10;103986.00;;;1.49;100.00
52535;BME280;38443;53.164;5.802;2023-02-12T05:56:36;103994.28;;;1.55;100.00
52535;BME280;38443;53.164;5.802;2023-02-12T05:59:10;103993.72;;;1.61;100.00
52535;BME280;38443;53.164;5.802;2023-02-12T06:01:38;103996.63;;;1.66;100.00
52535;BME280;38443;53.164;5.802;2023-02-12T06:04:09;103993.44;;;1.71;100.00
52535;BME280;38443;53.164;5.802;2023-02-12T06:06:36;103996.44;;;1.77;100.00
52535;BME280;38443;53.164;5.802;2023-02-12T06:09:01;103989.69;;;1.83;100.00
52535;BME280;38443;53.164;5.802;2023-02-12T06:11:27;103993.50;;;1.88;100.00
52535;BME280;38443;53.164;5.802;2023-02-12T06:13:52;103992.22;;;1.96;100.00
52535;BME280;38443;53.164;5.802;2023-02-12T06:16:20;103993.28;;;1.99;100.00
52535;BME280;38443;53.164;5.802;2023-02-12T06:18:47;103985.63;;;2.04;100.00
52535;BME280;38443;53.164;5.802;2023-02-12T06:21:13;103992.91;;;2.08;100.00
52535;BME280;38443;53.164;5.802;2023-02-12T06:23:38;103986.16;;;2.13;100.00
52535;BME280;38443;53.164;5.802;2023-02-12T06:26:03;103992.44;;;2.15;100.00
52535;BME280;38443;53.164;5.802;2023-02-12T06:28:29;103985.59;;;2.19;100.00
52535;BME280;38443;53.164;5.802;2023-02-12T06:30:54;103991.03;;;2.22;100.00
52535;BME280;38443;53.164;5.802;2023-02-12T06:33:19;103985.84;;;2.24;100.00
52535;BME280;38443;53.164;5.802;2023-02-12T06:35:45;103989.47;;;2.26;100.00
52535;BME280;38443;53.164;5.802;2023-02-12T06:38:10;104003.03;;;2.32;100.00
52535;BME280;38443;53.164;5.802;2023-02-12T06:40:35;104016.34;;;2.33;100.00
52535;BME280;38443;53.164;5.802;2023-02-12T06:43:00;104005.22;;;2.39;100.00
52535;BME280;38443;53.164;5.802;2023-02-12T06:45:26;104013.19;;;2.40;100.00
52535;BME280;38443;53.164;5.802;2023-02-12T06:47:51;104017.91;;;2.46;100.00
52535;BME280;38443;53.164;5.802;2023-02-12T06:50:17;104017.03;;;2.46;100.00
52535;BME280;38443;53.164;5.802;2023-02-12T06:52:42;104028.69;;;2.49;100.00
52535;BME280;38443;53.164;5.802;2023-02-12T06:55:07;104025.19;;;2.50;100.00
52535;BME280;38443;53.164;5.802;2023-02-12T06:57:33;104024.53;;;2.54;100.00
52535;BME280;38443;53.164;5.802;2023-02-12T06:59:58;104026.38;;;2.55;100.00
52535;BME280;38443;53.164;5.802;2023-02-12T07:02:23;104024.81;;;2.59;100.00
52535;BME280;38443;53.164;5.802;2023-02-12T07:04:49;104022.22;;;2.60;100.00
52535;BME280;38443;53.164;5.802;2023-02-12T07:07:14;104031.34;;;2.66;100.00
52535;BME280;38443;53.164;5.802;2023-02-12T07:09:39;104038.47;;;2.67;100.00
52535;BME280;38443;53.164;5.802;2023-02-12T07:12:04;104032.53;;;2.71;100.00
52535;BME280;38443;53.164;5.802;2023-02-12T07:14:30;104048.44;;;2.72;100.00
52535;BME280;38443;53.164;5.802;2023-02-12T07:16:55;104042.50;;;2.76;100.00
52535;BME280;38443;53.164;5.802;2023-02-12T07:19:21;104036.50;;;2.79;100.00
52535;BME280;38443;53.164;5.802;2023-02-12T07:21:47;104044.75;;;2.85;100.00
52535;BME280;38443;53.164;5.802;2023-02-12T07:24:13;104047.41;;;2.85;100.00
52535;BME280;38443;53.164;5.802;2023-02-12T07:26:40;104052.03;;;2.89;100.00
52535;BME280;38443;53.164;5.802;2023-02-12T07:29:06;104054.91;;;2.94;100.00
52535;BME280;38443;53.164;5.802;2023-02-12T07:31:31;104059.44;;;2.96;100.00
52535;BME280;38443;53.164;5.802;2023-02-12T07:33:57;104063.09;;;2.98;100.00
52535;BME280;38443;53.164;5.802;2023-02-12T07:36:25;104069.38;;;3.00;100.00
52535;BME280;38443;53.164;5.802;2023-02-12T07:38:51;104059.06;;;3.05;100.00
52535;BME280;38443;53.164;5.802;2023-02-12T07:41:26;104060.28;;;3.12;100.00
52535;BME280;38443;53.164;5.802;2023-02-12T07:43:54;104065.81;;;3.16;100.00
52535;BME280;38443;53.164;5.802;2023-02-12T07:46:28;104074.94;;;3.22;100.00
52535;BME280;38443;53.164;5.802;2023-02-12T07:48:58;104066.22;;;3.24;100.00
52535;BME280;38443;53.164;5.802;2023-02-12T07:51:24;104081.53;;;3.30;100.00
52535;BME280;38443;53.164;5.802;2023-02-12T07:53:49;104072.16;;;3.36;100.00
52535;BME280;38443;53.164;5.802;2023-02-12T07:56:19;104065.22;;;3.38;100.00
52535;BME280;38443;53.164;5.802;2023-02-12T07:58:47;104071.69;;;3.44;100.00
52535;BME280;38443;53.164;5.802;2023-02-12T08:01:18;104073.66;;;3.48;100.00
52535;BME280;38443;53.164;5.802;2023-02-12T08:03:46;104073.88;;;3.52;100.00
52535;BME280;38443;53.164;5.802;2023-02-12T08:06:23;104078.59;;;3.58;100.00
52535;BME280;38443;53.164;5.802;2023-02-12T08:08:51;104069.06;;;3.62;100.00
52535;BME280;38443;53.164;5.802;2023-02-12T08:11:17;104074.50;;;3.65;100.00
52535;BME280;38443;53.164;5.802;2023-02-12T08:13:43;104070.19;;;3.67;100.00
52535;BME280;38443;53.164;5.802;2023-02-12T08:16:10;104083.78;;;3.73;100.00
52535;BME280;38443;53.164;5.802;2023-02-12T08:18:35;104079.41;;;3.73;100.00
52535;BME280;38443;53.164;5.802;2023-02-12T08:21:02;104086.81;;;3.80;100.00
52535;BME280;38443;53.164;5.802;2023-02-12T08:23:28;104085.16;;;3.83;100.00
52535;BME280;38443;53.164;5.802;2023-02-12T08:25:53;104081.09;;;3.89;100.00
52535;BME280;38443;53.164;5.802;2023-02-12T08:28:18;104083.88;;;3.92;100.00
52535;BME280;38443;53.164;5.802;2023-02-12T08:30:44;104084.28;;;4.00;100.00
52535;BME280;38443;53.164;5.802;2023-02-12T08:33:09;104090.78;;;4.07;100.00
52535;BME280;38443;53.164;5.802;2023-02-12T08:35:34;104094.78;;;4.16;100.00
52535;BME280;38443;53.164;5.802;2023-02-12T08:38:00;104092.22;;;4.18;100.00
52535;BME280;38443;53.164;5.802;2023-02-12T08:40:25;104097.69;;;4.21;100.00
52535;BME280;38443;53.164;5.802;2023-02-12T08:42:51;104094.28;;;4.24;100.00
52535;BME280;38443;53.164;5.802;2023-02-12T08:45:17;104097.91;;;4.26;100.00
52535;BME280;38443;53.164;5.802;2023-02-12T08:47:42;104092.91;;;4.32;100.00
52535;BME280;38443;53.164;5.802;2023-02-12T08:50:07;104095.03;;;4.39;100.00
52535;BME280;38443;53.164;5.802;2023-02-12T08:52:33;104097.31;;;4.49;100.00
52535;BME280;38443;53.164;5.802;2023-02-12T08:54:59;104108.34;;;4.58;100.00
52535;BME280;38443;53.164;5.802;2023-02-12T08:57:24;104111.53;;;4.69;100.00
52535;BME280;38443;53.164;5.802;2023-02-12T08:59:49;104113.78;;;4.79;100.00
52535;BME280;38443;53.164;5.802;2023-02-12T09:02:14;104108.00;;;4.88;100.00
52535;BME280;38443;53.164;5.802;2023-02-12T09:04:40;104106.47;;;4.93;100.00
52535;BME280;38443;53.164;5.802;2023-02-12T09:07:05;104109.34;;;4.98;100.00
52535;BME280;38443;53.164;5.802;2023-02-12T09:09:30;104115.63;;;5.00;100.00
52535;BME280;38443;53.164;5.802;2023-02-12T09:11:55;104113.03;;;5.02;100.00
52535;BME280;38443;53.164;5.802;2023-02-12T09:14:21;104113.16;;;5.05;100.00
52535;BME280;38443;53.164;5.802;2023-02-12T09:16:50;104108.91;;;5.08;100.00
52535;BME280;38443;53.164;5.802;2023-02-12T09:19:17;104116.19;;;5.12;100.00
52535;BME280;38443;53.164;5.802;2023-02-12T09:21:42;104113.81;;;5.18;100.00
52535;BME280;38443;53.164;5.802;2023-02-12T09:24:08;104111.31;;;5.22;100.00
52535;BME280;38443;53.164;5.802;2023-02-12T09:26:33;104115.16;;;5.28;100.00
52535;BME280;38443;53.164;5.802;2023-02-12T09:29:00;104114.63;;;5.37;100.00
52535;BME280;38443;53.164;5.802;2023-02-12T09:31:28;104113.22;;;5.45;100.00
52535;BME280;38443;53.164;5.802;2023-02-12T09:33:58;104110.88;;;5.51;100.00
52535;BME280;38443;53.164;5.802;2023-02-12T09:36:24;104124.44;;;5.57;100.00
52535;BME280;38443;53.164;5.802;2023-02-12T09:38:49;104123.16;;;5.69;100.00
52535;BME280;38443;53.164;5.802;2023-02-12T09:41:28;104126.03;;;5.73;100.00
52535;BME280;38443;53.164;5.802;2023-02-12T09:46:58;104116.03;;;5.89;100.00
52535;BME280;38443;53.164;5.802;2023-02-12T09:52:18;104118.16;;;5.96;100.00
52535;BME280;38443;53.164;5.802;2023-02-12T09:54:44;104117.53;;;6.02;100.00
52535;BME280;38443;53.164;5.802;2023-02-12T09:57:22;104111.28;;;6.01;100.00
52535;BME280;38443;53.164;5.802;2023-02-12T09:59:57;104114.19;;;6.07;100.00
52535;BME280;38443;53.164;5.802;2023-02-12T10:02:23;104117.16;;;6.15;100.00
52535;BME280;38443;53.164;5.802;2023-02-12T10:04:48;104120.75;;;6.15;100.00
52535;BME280;38443;53.164;5.802;2023-02-12T10:07:18;104119.25;;;6.22;100.00
52535;BME280;38443;53.164;5.802;2023-02-12T10:12:48;104113.41;;;6.31;100.00
52535;BME280;38443;53.164;5.802;2023-02-12T10:15:31;104114.38;;;6.33;100.00
52535;BME280;38443;53.164;5.802;2023-02-12T10:18:20;104111.78;;;6.34;100.00
52535;BME280;38443;53.164;5.802;2023-02-12T10:26:34;104118.38;;;6.44;100.00
52535;BME280;38443;53.164;5.802;2023-02-12T10:29:29;104133.56;;;6.47;100.00
52535;BME280;38443;53.164;5.802;2023-02-12T10:32:29;104124.75;;;6.48;100.00
52535;BME280;38443;53.164;5.802;2023-02-12T10:34:56;104123.88;;;6.49;100.00
52535;BME280;38443;53.164;5.802;2023-02-12T10:37:31;104127.41;;;6.48;100.00
52535;BME280;38443;53.164;5.802;2023-02-12T10:40:22;104135.97;;;6.41;100.00
52535;BME280;38443;53.164;5.802;2023-02-12T10:42:52;104133.31;;;6.41;100.00
52535;BME280;38443;53.164;5.802;2023-02-12T10:45:21;104131.44;;;6.38;100.00
52535;BME280;38443;53.164;5.802;2023-02-12T10:47:51;104128.63;;;6.35;100.00
52535;BME280;38443;53.164;5.802;2023-02-12T10:50:24;104135.66;;;6.33;100.00
52535;BME280;38443;53.164;5.802;2023-02-12T10:52:57;104132.91;;;6.31;100.00
52535;BME280;38443;53.164;5.802;2023-02-12T10:55:28;104128.38;;;6.29;100.00
52535;BME280;38443;53.164;5.802;2023-02-12T10:57:54;104134.56;;;6.28;100.00
52535;BME280;38443;53.164;5.802;2023-02-12T11:00:34;104135.41;;;6.27;100.00
52535;BME280;38443;53.164;5.802;2023-02-12T11:05:38;104136.50;;;6.32;100.00
52535;BME280;38443;53.164;5.802;2023-02-12T11:08:05;104137.50;;;6.34;100.00
52535;BME280;38443;53.164;5.802;2023-02-12T11:10:40;104138.47;;;6.36;100.00
52535;BME280;38443;53.164;5.802;2023-02-12T11:13:24;104133.22;;;6.37;100.00
52535;BME280;38443;53.164;5.802;2023-02-12T11:15:50;104135.06;;;6.40;100.00
52535;BME280;38443;53.164;5.802;2023-02-12T11:18:22;104136.69;;;6.36;100.00
52535;BME280;38443;53.164;5.802;2023-02-12T11:20:57;104125.41;;;6.42;100.00
52535;BME280;38443;53.164;5.802;2023-02-12T11:23:35;104126.47;;;6.47;100.00
52535;BME280;38443;53.164;5.802;2023-02-12T11:26:05;104127.59;;;6.52;100.00
52535;BME280;38443;53.164;5.802;2023-02-12T11:28:35;104118.88;;;6.56;100.00
52535;BME280;38443;53.164;5.802;2023-02-12T11:31:01;104120.81;;;6.61;100.00
52535;BME280;38443;53.164;5.802;2023-02-12T11:33:36;104116.34;;;6.59;100.00
52535;BME280;38443;53.164;5.802;2023-02-12T11:36:24;104121.72;;;6.61;100.00
52535;BME280;38443;53.164;5.802;2023-02-12T11:38:54;104121.94;;;6.66;100.00
52535;BME280;38443;53.164;5.802;2023-02-12T11:41:30;104117.56;;;6.68;100.00
52535;BME280;38443;53.164;5.802;2023-02-12T11:43:59;104108.72;;;6.69;100.00
52535;BME280;38443;53.164;5.802;2023-02-12T11:46:26;104098.94;;;6.68;100.00
52535;BME280;38443;53.164;5.802;2023-02-12T11:48:54;104109.59;;;6.68;100.00
52535;BME280;38443;53.164;5.802;2023-02-12T11:51:25;104103.41;;;6.69;100.00
52535;BME280;38443;53.164;5.802;2023-02-12T11:53:54;104109.63;;;6.69;100.00
52535;BME280;38443;53.164;5.802;2023-02-12T11:56:22;104104.28;;;6.69;100.00
52535;BME280;38443;53.164;5.802;2023-02-12T11:58:47;104106.91;;;6.68;100.00
52535;BME280;38443;53.164;5.802;2023-02-12T12:01:18;104103.41;;;6.69;100.00
52535;BME280;38443;53.164;5.802;2023-02-12T12:06:51;104101.63;;;6.69;100.00
52535;BME280;38443;53.164;5.802;2023-02-12T12:09:48;104102.50;;;6.68;100.00
52535;BME280;38443;53.164;5.802;2023-02-12T12:14:51;104099.91;;;6.70;100.00
52535;BME280;38443;53.164;5.802;2023-02-12T12:17:44;104098.97;;;6.69;100.00
52535;BME280;38443;53.164;5.802;2023-02-12T12:20:40;104097.28;;;6.71;100.00
52535;BME280;38443;53.164;5.802;2023-02-12T12:23:36;104092.88;;;6.72;100.00
52535;BME280;38443;53.164;5.802;2023-02-12T12:26:13;104090.16;;;6.70;100.00
52535;BME280;38443;53.164;5.802;2023-02-12T12:29:16;104100.06;;;6.74;100.00
52535;BME280;38443;53.164;5.802;2023-02-12T12:31:46;104097.47;;;6.76;100.00
52535;BME280;38443;53.164;5.802;2023-02-12T12:34:19;104101.03;;;6.76;100.00
52535;BME280;38443;53.164;5.802;2023-02-12T13:01:47;104062.38;;;6.86;100.00
52535;BME280;38443;53.164;5.802;2023-02-12T13:04:36;104064.13;;;6.86;100.00
52535;BME280;38443;53.164;5.802;2023-02-12T13:07:38;104060.66;;;6.88;100.00
52535;BME280;38443;53.164;5.802;2023-02-12T13:10:16;104057.16;;;6.89;100.00
52535;BME280;38443;53.164;5.802;2023-02-12T13:29:08;104042.94;;;6.89;100.00
52535;BME280;38443;53.164;5.802;2023-02-12T13:31:44;104042.03;;;6.88;100.00
52535;BME280;38443;53.164;5.802;2023-02-12T13:34:13;104045.66;;;6.90;100.00
52535;BME280;38443;53.164;5.802;2023-02-12T13:36:40;104044.03;;;6.94;100.00
52535;BME280;38443;53.164;5.802;2023-02-12T13:41:46;104043.09;;;6.93;100.00
52535;BME280;38443;53.164;5.802;2023-02-12T13:44:24;104041.22;;;6.91;100.00
52535;BME280;38443;53.164;5.802;2023-02-12T13:57:29;104042.03;;;6.88;100.00
52535;BME280;38443;53.164;5.802;2023-02-12T13:59:57;104039.22;;;6.84;100.00
52535;BME280;38443;53.164;5.802;2023-02-12T14:05:22;104036.47;;;6.82;100.00
52535;BME280;38443;53.164;5.802;2023-02-12T14:07:53;104037.44;;;6.84;100.00
52535;BME280;38443;53.164;5.802;2023-02-12T14:10:27;104032.94;;;6.83;100.00
52535;BME280;38443;53.164;5.802;2023-02-12T14:12:57;104036.53;;;6.84;100.00
52535;BME280;38443;53.164;5.802;2023-02-12T14:15:35;104029.47;;;6.84;100.00
52535;BME280;38443;53.164;5.802;2023-02-12T14:23:26;104031.97;;;6.79;100.00
52535;BME280;38443;53.164;5.802;2023-02-12T14:25:59;104035.50;;;6.80;100.00
52535;BME280;38443;53.164;5.802;2023-02-12T14:28:33;104038.19;;;6.80;100.00
52535;BME280;38443;53.164;5.802;2023-02-12T14:33:51;104035.44;;;6.78;100.00
52535;BME280;38443;53.164;5.802;2023-02-12T14:36:41;104037.06;;;6.75;100.00
52535;BME280;38443;53.164;5.802;2023-02-12T14:46:59;104027.91;;;6.67;100.00
52535;BME280;38443;53.164;5.802;2023-02-12T14:49:43;104037.72;;;6.68;100.00
52535;BME280;38443;53.164;5.802;2023-02-12T14:57:08;104029.59;;;6.65;100.00
52535;BME280;38443;53.164;5.802;2023-02-12T14:59:39;104023.38;;;6.64;100.00
52535;BME280;38443;53.164;5.802;2023-02-12T15:02:08;104019.69;;;6.61;100.00
52535;BME280;38443;53.164;5.802;2023-02-12T15:04:40;104016.06;;;6.58;100.00
52535;BME280;38443;53.164;5.802;2023-02-12T15:07:13;104012.44;;;6.56;100.00
52535;BME280;38443;53.164;5.802;2023-02-12T15:09:56;104010.56;;;6.54;100.00
52535;BME280;38443;53.164;5.802;2023-02-12T15:12:30;104005.25;;;6.54;100.00
52535;BME280;38443;53.164;5.802;2023-02-12T15:15:31;104014.91;;;6.52;100.00
52535;BME280;38443;53.164;5.802;2023-02-12T15:20:53;104011.41;;;6.53;100.00
52535;BME280;38443;53.164;5.802;2023-02-12T15:23:31;103998.03;;;6.51;100.00
52535;BME280;38443;53.164;5.802;2023-02-12T15:25:56;103997.19;;;6.52;100.00
52535;BME280;38443;53.164;5.802;2023-02-12T15:28:30;103992.66;;;6.50;100.00